createdAt,value
2018-08-10T00:01:08.454Z,100923.84
2018-08-10T00:03:36.817Z,100931.20
2018-08-10T00:06:05.398Z,100928.45
2018-08-10T00:08:33.740Z,100944.14
2018-08-10T00:11:02.131Z,100946.98
2018-08-10T00:13:30.465Z,100958.08
2018-08-10T00:15:58.821Z,100964.23
2018-08-10T00:18:27.156Z,100964.36
2018-08-10T00:20:55.505Z,100980.88
2018-08-10T00:23:23.851Z,100979.55
2018-08-10T00:25:52.160Z,100993.02
2018-08-10T00:28:20.484Z,100996.16
2018-08-10T00:30:48.867Z,100997.74
2018-08-10T00:33:17.236Z,100998.22
2018-08-10T00:35:45.586Z,101009.79
2018-08-10T00:38:13.954Z,101010.13
2018-08-10T00:40:42.297Z,101010.38
2018-08-10T00:43:10.668Z,101017.53
2018-08-10T00:45:39.035Z,101024.09
2018-08-10T00:48:07.429Z,101033.89
2018-08-10T00:50:35.734Z,101046.03
2018-08-10T00:53:04.201Z,101041.46
2018-08-10T00:55:32.550Z,101062.31
2018-08-10T00:58:00.865Z,101062.28
2018-08-10T01:00:29.236Z,101077.25
2018-08-10T01:02:57.706Z,101082.27
2018-08-10T01:05:26.201Z,101093.58
2018-08-10T01:07:54.530Z,101090.53
2018-08-10T01:10:22.891Z,101101.27
2018-08-10T01:12:51.252Z,101104.41
2018-08-10T01:15:19.587Z,101113.95
2018-08-10T01:17:48.133Z,101104.92
2018-08-10T01:20:19.353Z,101105.38
2018-08-10T01:22:53.005Z,101115.59
2018-08-10T01:25:22.765Z,101118.27
2018-08-10T01:27:59.585Z,101112.66
2018-08-10T01:30:29.198Z,101121.89
2018-08-10T01:32:57.778Z,101134.95
2018-08-10T01:35:26.717Z,101133.31
2018-08-10T01:37:56.130Z,101128.04
2018-08-10T01:40:24.569Z,101134.46
2018-08-10T01:42:52.933Z,101141.38
2018-08-10T01:45:21.262Z,101144.41
2018-08-10T01:47:49.721Z,101147.66
2018-08-10T01:50:18.092Z,101153.74
2018-08-10T01:52:46.508Z,101161.44
2018-08-10T01:55:14.830Z,101160.78
2018-08-10T01:57:43.197Z,101161.67
2018-08-10T02:00:11.876Z,101166.83
2018-08-10T02:02:40.230Z,101161.98
2018-08-10T02:05:10.341Z,101168.09
2018-08-10T02:07:39.437Z,101161.59
2018-08-10T02:10:09.975Z,101171.58
2018-08-10T02:12:38.851Z,101164.09
2018-08-10T02:15:09.397Z,101174.23
2018-08-10T02:17:38.163Z,101176.91
2018-08-10T02:20:08.069Z,101181.21
2018-08-10T02:22:36.698Z,101180.70
2018-08-10T02:25:06.216Z,101184.77
2018-08-10T02:27:34.764Z,101181.81
2018-08-10T02:30:03.172Z,101189.56
2018-08-10T02:32:31.475Z,101198.58
2018-08-10T02:34:59.853Z,101197.55
2018-08-10T02:37:28.236Z,101198.75
2018-08-10T02:39:56.606Z,101212.07
2018-08-10T02:42:24.906Z,101209.61
2018-08-10T02:44:53.340Z,101215.16
2018-08-10T02:47:23.545Z,101227.46
2018-08-10T02:49:53.336Z,101213.15
2018-08-10T02:52:22.022Z,101218.94
2018-08-10T02:54:50.384Z,101219.30
2018-08-10T02:57:18.737Z,101221.02
2018-08-10T02:59:47.080Z,101222.27
2018-08-10T03:02:16.045Z,101227.50
2018-08-10T03:04:44.541Z,101231.19
2018-08-10T03:07:13.009Z,101241.45
2018-08-10T03:09:42.022Z,101243.14
2018-08-10T03:12:11.836Z,101254.11
2018-08-10T03:14:40.298Z,101254.09
2018-08-10T03:17:08.877Z,101262.03
2018-08-10T03:19:37.427Z,101257.02
2018-08-10T03:22:06.472Z,101255.73
2018-08-10T03:24:34.972Z,101255.88
2018-08-10T03:27:03.523Z,101274.02
2018-08-10T03:29:31.871Z,101268.08
2018-08-10T03:32:00.212Z,101277.30
2018-08-10T03:34:28.561Z,101279.65
2018-08-10T03:36:56.888Z,101274.48
2018-08-10T03:39:25.251Z,101281.76
2018-08-10T03:41:53.638Z,101288.25
2018-08-10T03:44:21.965Z,101288.73
2018-08-10T03:46:50.318Z,101284.11
2018-08-10T03:49:18.833Z,101294.25
2018-08-10T03:51:47.171Z,101294.20
2018-08-10T03:54:15.599Z,101305.32
2018-08-10T03:56:43.992Z,101294.56
2018-08-10T03:59:12.321Z,101301.16
2018-08-10T04:01:40.732Z,101304.87
2018-08-10T04:04:09.099Z,101317.73
2018-08-10T04:06:37.448Z,101318.09
2018-08-10T04:09:08.838Z,101315.62
2018-08-10T04:11:37.207Z,101318.91
2018-08-10T04:14:06.024Z,101321.87
2018-08-10T04:16:34.357Z,101323.83
2018-08-10T04:19:02.712Z,101326.18
2018-08-10T04:21:31.049Z,101324.50
2018-08-10T04:23:59.366Z,101324.38
2018-08-10T04:26:27.715Z,101330.53
2018-08-10T04:28:56.089Z,101336.32
2018-08-10T04:31:24.461Z,101327.83
2018-08-10T04:33:52.814Z,101335.50
2018-08-10T04:36:21.157Z,101343.02
2018-08-10T04:38:49.510Z,101348.22
2018-08-10T04:41:17.833Z,101351.30
2018-08-10T04:43:46.169Z,101360.89
2018-08-10T04:46:14.501Z,101365.59
2018-08-10T04:48:42.865Z,101371.03
2018-08-10T04:51:11.182Z,101373.55
2018-08-10T04:53:39.544Z,101381.56
2018-08-10T04:56:07.845Z,101380.28
2018-08-10T04:58:36.197Z,101387.62
2018-08-10T05:01:04.568Z,101384.50
2018-08-10T05:03:32.982Z,101389.78
2018-08-10T05:06:01.376Z,101394.36
2018-08-10T05:08:29.721Z,101391.28
2018-08-10T05:10:58.037Z,101398.41
2018-08-10T05:13:26.351Z,101402.98
2018-08-10T05:15:54.704Z,101406.41
2018-08-10T05:18:23.029Z,101405.06
2018-08-10T05:20:51.379Z,101415.36
2018-08-10T05:23:19.714Z,101419.38
2018-08-10T05:25:48.058Z,101415.81
2018-08-10T05:28:16.416Z,101418.83
2018-08-10T05:30:44.890Z,101424.41
2018-08-10T05:33:13.297Z,101427.68
2018-08-10T05:35:41.658Z,101431.54
2018-08-10T05:38:10.183Z,101434.80
2018-08-10T05:40:38.737Z,101430.78
2018-08-10T05:43:07.570Z,101435.69
2018-08-10T05:45:35.921Z,101443.23
2018-08-10T05:48:04.472Z,101448.26
2018-08-10T05:50:32.747Z,101448.36
2018-08-10T05:53:01.154Z,101454.39
2018-08-10T05:55:29.676Z,101451.02
2018-08-10T05:57:58.038Z,101444.54
2018-08-10T06:00:26.387Z,101447.73
2018-08-10T06:02:54.771Z,101448.68
2018-08-10T06:05:23.085Z,101454.85
2018-08-10T06:07:51.420Z,101460.92
2018-08-10T06:10:19.806Z,101460.81
2018-08-10T06:12:48.126Z,101460.00
2018-08-10T06:15:16.665Z,101475.91
2018-08-10T06:17:44.956Z,101471.66
2018-08-10T06:20:13.390Z,101470.24
2018-08-10T06:22:41.809Z,101477.67
2018-08-10T06:25:10.238Z,101476.83
2018-08-10T06:27:38.571Z,101482.29
2018-08-10T06:30:09.951Z,101479.74
2018-08-10T06:32:38.328Z,101480.56
2018-08-10T06:35:06.783Z,101479.33
2018-08-10T06:37:35.137Z,101486.06
2018-08-10T06:40:03.668Z,101489.27
2018-08-10T06:42:32.046Z,101491.80
2018-08-10T06:45:00.565Z,101489.47
2018-08-10T06:47:28.822Z,101495.36
2018-08-10T06:49:57.145Z,101496.39
2018-08-10T06:52:25.608Z,101499.44
2018-08-10T06:54:53.980Z,101492.76
2018-08-10T06:57:22.322Z,101507.33
2018-08-10T06:59:50.643Z,101502.39
2018-08-10T07:02:18.939Z,101498.11
2018-08-10T07:04:47.268Z,101502.10
2018-08-10T07:07:15.645Z,101500.70
2018-08-10T07:09:43.961Z,101499.59
2018-08-10T07:12:12.333Z,101505.00
2018-08-10T07:14:40.646Z,101511.45
2018-08-10T07:17:08.973Z,101512.61
2018-08-10T07:19:37.353Z,101513.94
2018-08-10T07:22:05.702Z,101512.61
2018-08-10T07:24:34.052Z,101522.27
2018-08-10T07:27:02.423Z,101523.52
2018-08-10T07:29:30.903Z,101517.82
2018-08-10T07:31:59.287Z,101523.74
2018-08-10T07:34:27.674Z,101525.73
2018-08-10T07:36:56.056Z,101529.09
2018-08-10T07:39:24.407Z,101524.63
2018-08-10T07:41:52.762Z,101525.41
2018-08-10T07:44:21.125Z,101530.54
2018-08-10T07:46:49.434Z,101524.55
2018-08-10T07:49:17.817Z,101530.12
2018-08-10T07:51:46.157Z,101533.89
2018-08-10T07:54:14.469Z,101535.06
2018-08-10T07:56:42.800Z,101540.55
2018-08-10T07:59:11.324Z,101541.22
2018-08-10T08:01:39.530Z,101536.73
2018-08-10T08:04:08.662Z,101538.94
2018-08-10T08:06:37.051Z,101528.97
2018-08-10T08:09:08.217Z,101534.22
2018-08-10T08:11:36.680Z,101543.53
2018-08-10T08:14:05.024Z,101539.41
2018-08-10T08:16:33.369Z,101540.18
2018-08-10T08:19:01.701Z,101542.74
2018-08-10T08:21:30.037Z,101538.27
2018-08-10T08:23:58.480Z,101541.77
2018-08-10T08:26:26.807Z,101541.89
2018-08-10T08:28:55.214Z,101541.80
2018-08-10T08:31:23.589Z,101542.34
2018-08-10T08:34:04.180Z,101542.10
2018-08-10T08:36:32.597Z,101536.31
2018-08-10T08:41:19.441Z,101548.98
2018-08-10T08:46:12.665Z,101551.08
2018-08-10T08:48:45.716Z,101549.80
2018-08-10T08:51:22.217Z,101539.24
2018-08-10T08:54:01.913Z,101548.66
2018-08-10T08:56:37.657Z,101553.20
2018-08-10T08:59:06.004Z,101547.95
2018-08-10T09:01:34.345Z,101541.53
2018-08-10T09:04:55.535Z,101546.30
2018-08-10T09:07:24.155Z,101541.33
2018-08-10T09:09:52.453Z,101540.11
2018-08-10T09:12:20.777Z,101549.39
2018-08-10T09:14:54.313Z,101541.05
2018-08-10T09:17:22.756Z,101544.23
2018-08-10T09:19:51.084Z,101547.01
2018-08-10T09:22:19.467Z,101541.78
2018-08-10T09:24:47.888Z,101543.11
2018-08-10T09:27:16.263Z,101546.91
2018-08-10T09:29:44.597Z,101543.54
2018-08-10T09:32:12.974Z,101540.67
2018-08-10T09:34:41.381Z,101538.39
2018-08-10T09:37:10.275Z,101531.64
2018-08-10T09:39:38.673Z,101535.44
2018-08-10T09:42:07.703Z,101536.35
2018-08-10T09:44:36.229Z,101535.39
2018-08-10T09:47:05.340Z,101529.11
2018-08-10T09:49:52.504Z,101533.41
2018-08-10T09:52:20.853Z,101532.05
2018-08-10T09:55:28.228Z,101542.70
2018-08-10T09:57:58.126Z,101547.62
2018-08-10T10:00:31.877Z,101536.09
2018-08-10T10:03:05.592Z,101538.67
2018-08-10T10:05:33.947Z,101543.89
2018-08-10T10:08:02.321Z,101533.91
2018-08-10T10:10:30.708Z,101532.38
2018-08-10T10:12:59.276Z,101536.20
2018-08-10T10:15:27.648Z,101532.63
2018-08-10T10:17:56.000Z,101538.11
2018-08-10T10:20:24.371Z,101540.78
2018-08-10T10:22:52.887Z,101543.23
2018-08-10T10:25:21.253Z,101533.92
2018-08-10T10:27:49.629Z,101533.86
2018-08-10T10:30:17.968Z,101526.12
2018-08-10T10:32:46.447Z,101530.97
2018-08-10T10:35:14.816Z,101534.87
2018-08-10T10:37:43.317Z,101533.13
2018-08-10T10:40:12.015Z,101531.82
2018-08-10T10:42:40.642Z,101534.23
2018-08-10T10:45:11.852Z,101524.95
2018-08-10T10:47:40.669Z,101531.45
2018-08-10T10:50:10.257Z,101536.55
2018-08-10T10:52:39.578Z,101530.64
2018-08-10T10:55:08.910Z,101542.33
2018-08-10T10:57:37.676Z,101531.23
2018-08-10T11:00:08.100Z,101537.27
2018-08-10T11:02:36.650Z,101531.48
2018-08-10T11:05:05.777Z,101530.31
2018-08-10T11:07:34.167Z,101522.34
2018-08-10T11:10:02.533Z,101530.16
2018-08-10T11:12:30.870Z,101532.55
2018-08-10T11:14:59.238Z,101534.63
2018-08-10T11:17:27.608Z,101531.74
2018-08-10T11:19:56.007Z,101528.08
2018-08-10T11:22:24.331Z,101530.12
2018-08-10T11:24:52.748Z,101534.21
2018-08-10T11:27:21.096Z,101536.22
2018-08-10T11:29:49.649Z,101528.55
2018-08-10T11:32:18.020Z,101538.87
2018-08-10T11:34:46.392Z,101537.79
2018-08-10T11:37:14.776Z,101542.78
2018-08-10T11:39:43.106Z,101537.48
2018-08-10T11:42:11.506Z,101532.69
2018-08-10T11:44:39.895Z,101534.91
2018-08-10T11:47:08.266Z,101530.14
2018-08-10T11:49:36.636Z,101527.52
2018-08-10T11:52:04.965Z,101532.02
2018-08-10T11:54:33.435Z,101530.16
2018-08-10T11:57:02.000Z,101542.23
2018-08-10T11:59:30.392Z,101536.54
2018-08-10T12:01:58.751Z,101531.09
2018-08-10T12:04:27.182Z,101526.19
2018-08-10T12:06:55.498Z,101538.02
2018-08-10T12:09:23.867Z,101532.21
2018-08-10T12:11:52.241Z,101532.23
2018-08-10T12:14:20.620Z,101532.86
2018-08-10T12:16:48.995Z,101531.33
2018-08-10T12:19:17.380Z,101535.30
2018-08-10T12:21:45.756Z,101531.91
2018-08-10T12:24:14.137Z,101532.22
2018-08-10T12:26:42.641Z,101527.13
2018-08-10T12:29:11.023Z,101518.41
2018-08-10T12:31:39.358Z,101520.02
2018-08-10T12:34:07.727Z,101525.20
2018-08-10T12:36:36.089Z,101524.67
2018-08-10T12:39:08.120Z,101521.40
2018-08-10T12:41:36.475Z,101527.30
2018-08-10T12:44:04.987Z,101521.98
2018-08-10T12:46:33.334Z,101519.05
2018-08-10T12:49:01.643Z,101522.31
2018-08-10T12:51:30.001Z,101519.24
2018-08-10T12:53:58.612Z,101515.09
2018-08-10T12:56:26.962Z,101507.84
2018-08-10T12:58:55.568Z,101517.52
2018-08-10T13:01:23.881Z,101524.58
2018-08-10T13:03:52.285Z,101526.68
2018-08-10T13:06:20.638Z,101517.73
2018-08-10T13:08:49.006Z,101533.00
2018-08-10T13:11:17.384Z,101514.12
2018-08-10T13:13:45.730Z,101512.98
2018-08-10T13:16:14.426Z,101519.13
2018-08-10T13:18:43.037Z,101515.05
2018-08-10T13:21:11.419Z,101520.77
2018-08-10T13:23:39.722Z,101523.51
2018-08-10T13:26:08.108Z,101527.36
2018-08-10T13:28:36.458Z,101522.55
2018-08-10T13:31:04.886Z,101523.59
2018-08-10T13:33:33.227Z,101518.67
2018-08-10T13:36:01.593Z,101510.02
2018-08-10T13:38:30.009Z,101507.79
2018-08-10T13:40:58.504Z,101506.40
2018-08-10T13:43:26.841Z,101509.48
2018-08-10T13:45:55.175Z,101504.95
2018-08-10T13:48:23.536Z,101495.88
2018-08-10T13:50:51.953Z,101488.97
2018-08-10T13:53:20.509Z,101494.92
2018-08-10T13:55:48.844Z,101489.92
2018-08-10T13:58:17.234Z,101488.30
2018-08-10T14:00:45.608Z,101492.44
2018-08-10T14:03:13.997Z,101488.41
2018-08-10T14:05:42.394Z,101487.52
2018-08-10T14:08:10.767Z,101493.03
2018-08-10T14:10:39.092Z,101480.22
2018-08-10T14:13:07.470Z,101478.34
2018-08-10T14:15:35.806Z,101479.46
2018-08-10T14:18:04.265Z,101475.02
2018-08-10T14:20:32.597Z,101477.23
2018-08-10T14:23:00.943Z,101470.09
2018-08-10T14:25:29.881Z,101462.20
2018-08-10T14:27:58.263Z,101464.92
2018-08-10T14:30:26.616Z,101468.61
2018-08-10T14:32:54.987Z,101460.11
2018-08-10T14:35:23.398Z,101465.79
2018-08-10T14:37:51.768Z,101469.39
2018-08-10T14:40:20.208Z,101459.30
2018-08-10T14:42:48.534Z,101454.97
2018-08-10T14:45:17.364Z,101459.80
2018-08-10T14:47:45.728Z,101463.38
2018-08-10T14:50:14.870Z,101460.30
2018-08-10T14:52:43.349Z,101448.19
2018-08-10T14:55:13.824Z,101450.73
2018-08-10T14:57:42.195Z,101452.46
2018-08-10T15:00:20.227Z,101455.59
2018-08-10T15:02:48.834Z,101452.76
2018-08-10T15:05:17.425Z,101453.22
2018-08-10T15:07:46.020Z,101433.85
2018-08-10T15:10:15.657Z,101451.93
2018-08-10T15:12:44.664Z,101457.78
2018-08-10T15:15:17.015Z,101450.02
2018-08-10T15:17:45.947Z,101442.09
2018-08-10T15:20:17.212Z,101435.53
2018-08-10T15:22:45.768Z,101435.06
2018-08-10T15:25:14.132Z,101432.95
2018-08-10T15:27:43.142Z,101432.11
2018-08-10T15:30:13.817Z,101429.48
2018-08-10T15:32:42.574Z,101425.59
2018-08-10T15:35:12.306Z,101425.30
2018-08-10T15:37:40.630Z,101421.55
2018-08-10T15:40:11.089Z,101417.52
2018-08-10T15:42:39.470Z,101430.15
2018-08-10T15:45:10.332Z,101429.70
2018-08-10T15:47:38.721Z,101425.23
2018-08-10T15:50:08.198Z,101427.98
2018-08-10T15:52:36.565Z,101430.82
2018-08-10T15:55:05.670Z,101422.43
2018-08-10T15:57:34.054Z,101422.92
2018-08-10T16:00:02.422Z,101413.91
2018-08-10T16:02:30.769Z,101420.61
2018-08-10T16:04:59.286Z,101413.51
2018-08-10T16:07:27.689Z,101415.25
2018-08-10T16:09:56.005Z,101406.56
2018-08-10T16:12:24.372Z,101423.86
2018-08-10T16:14:52.699Z,101421.02
2018-08-10T16:17:21.056Z,101418.14
2018-08-10T16:19:49.462Z,101412.91
2018-08-10T16:22:17.806Z,101421.16
2018-08-10T16:24:46.204Z,101412.81
2018-08-10T16:27:14.540Z,101409.64
2018-08-10T16:29:43.095Z,101409.20
2018-08-10T16:32:11.491Z,101407.33
2018-08-10T16:34:39.861Z,101404.64
2018-08-10T16:37:08.509Z,101405.64
2018-08-10T16:39:36.880Z,101401.05
2018-08-10T16:42:05.295Z,101403.77
2018-08-10T16:44:33.699Z,101402.95
2018-08-10T16:47:02.248Z,101403.18
2018-08-10T16:49:30.859Z,101401.08
2018-08-10T16:51:59.208Z,101410.23
2018-08-10T16:54:27.586Z,101402.02
2018-08-10T16:56:55.966Z,101404.41
2018-08-10T16:59:24.409Z,101396.11
2018-08-10T17:01:52.716Z,101394.55
2018-08-10T17:04:21.509Z,101392.63
2018-08-10T17:06:49.929Z,101397.25
2018-08-10T17:09:18.255Z,101393.88
2018-08-10T17:11:46.622Z,101390.81
2018-08-10T17:14:15.008Z,101390.66
2018-08-10T17:16:43.368Z,101390.34
2018-08-10T17:19:11.738Z,101388.17
2018-08-10T17:21:40.097Z,101383.61
2018-08-10T17:24:08.619Z,101394.00
2018-08-10T17:26:37.137Z,101387.27
2018-08-10T17:29:05.414Z,101392.93
2018-08-10T17:31:33.797Z,101381.75
2018-08-10T17:34:02.143Z,101383.32
2018-08-10T17:36:30.757Z,101385.73
2018-08-10T17:38:59.888Z,101381.68
2018-08-10T17:41:28.275Z,101381.01
2018-08-10T17:43:56.641Z,101372.66
2018-08-10T17:46:25.018Z,101373.13
2018-08-10T17:48:53.399Z,101375.19
2018-08-10T17:51:21.780Z,101374.80
2018-08-10T17:53:50.125Z,101374.92
2018-08-10T17:56:18.449Z,101381.25
2018-08-10T17:58:46.864Z,101383.11
2018-08-10T18:01:15.166Z,101375.28
2018-08-10T18:03:43.584Z,101374.56
2018-08-10T18:06:11.922Z,101375.73
2018-08-10T18:08:40.284Z,101376.98
2018-08-10T18:11:08.698Z,101378.02
2018-08-10T18:13:37.061Z,101377.17
2018-08-10T18:16:05.633Z,101382.25
2018-08-10T18:18:33.961Z,101375.66
2018-08-10T18:21:02.375Z,101374.52
2018-08-10T18:23:30.713Z,101378.38
2018-08-10T18:25:59.043Z,101377.68
2018-08-10T18:28:27.396Z,101378.63
2018-08-10T18:30:56.045Z,101378.19
2018-08-10T18:33:24.437Z,101378.94
2018-08-10T18:35:52.745Z,101379.55
2018-08-10T18:38:21.115Z,101372.23
2018-08-10T18:40:49.501Z,101367.92
2018-08-10T18:43:17.838Z,101372.66
2018-08-10T18:45:46.169Z,101372.04
2018-08-10T18:48:14.539Z,101367.72
2018-08-10T18:50:42.928Z,101375.58
2018-08-10T18:53:11.267Z,101368.06
2018-08-10T18:55:39.607Z,101371.58
2018-08-10T18:58:07.971Z,101376.20
2018-08-10T19:00:36.307Z,101370.84
2018-08-10T19:03:04.688Z,101374.46
2018-08-10T19:05:33.004Z,101368.50
2018-08-10T19:08:01.387Z,101369.44
2018-08-10T19:10:30.432Z,101374.58
2018-08-10T19:12:58.849Z,101373.64
2018-08-10T19:15:27.198Z,101375.50
2018-08-10T19:17:55.529Z,101372.82
2018-08-10T19:20:23.983Z,101374.45
2018-08-10T19:22:52.304Z,101378.44
2018-08-10T19:25:20.671Z,101374.41
2018-08-10T19:27:49.093Z,101380.28
2018-08-10T19:30:21.120Z,101385.14
2018-08-10T19:32:49.503Z,101387.17
2018-08-10T19:35:18.447Z,101386.94
2018-08-10T19:37:46.803Z,101393.44
2018-08-10T19:40:16.316Z,101389.52
2018-08-10T19:42:44.776Z,101390.03
2018-08-10T19:45:14.183Z,101393.02
2018-08-10T19:47:42.637Z,101391.67
2018-08-10T19:50:12.498Z,101391.27
2018-08-10T19:52:40.833Z,101391.98
2018-08-10T19:55:10.737Z,101390.52
2018-08-10T19:57:39.543Z,101394.53
2018-08-10T20:00:09.432Z,101388.27
2018-08-10T20:02:37.824Z,101388.27
2018-08-10T20:05:07.212Z,101385.48
2018-08-10T20:07:35.593Z,101391.53
2018-08-10T20:10:04.803Z,101393.61
2018-08-10T20:12:33.184Z,101391.33
2018-08-10T20:15:01.539Z,101389.56
2018-08-10T20:17:29.858Z,101390.78
2018-08-10T20:19:58.194Z,101387.69
2018-08-10T20:22:26.520Z,101388.91
2018-08-10T20:24:54.863Z,101382.30
2018-08-10T20:27:23.237Z,101388.97
2018-08-10T20:29:51.613Z,101381.18
2018-08-10T20:32:19.971Z,101379.63
2018-08-10T20:34:48.354Z,101380.33
2018-08-10T20:37:16.779Z,101376.41
2018-08-10T20:39:45.163Z,101379.56
2018-08-10T20:42:13.526Z,101379.31
2018-08-10T20:44:41.853Z,101368.97
2018-08-10T20:47:10.419Z,101377.55
2018-08-10T20:49:38.868Z,101370.39
2018-08-10T20:52:07.236Z,101374.05
2018-08-10T20:54:35.572Z,101370.69
2018-08-10T20:57:03.997Z,101370.03
2018-08-10T20:59:32.344Z,101369.60
2018-08-10T21:02:00.729Z,101375.72
2018-08-10T21:04:29.201Z,101378.84
2018-08-10T21:06:57.571Z,101366.97
2018-08-10T21:09:25.913Z,101377.91
2018-08-10T21:11:54.294Z,101377.16
2018-08-10T21:14:22.634Z,101375.75
2018-08-10T21:16:51.014Z,101377.53
2018-08-10T21:19:19.396Z,101367.92
2018-08-10T21:21:47.792Z,101368.67
2018-08-10T21:24:16.133Z,101367.61
2018-08-10T21:26:44.523Z,101369.70
2018-08-10T21:29:12.922Z,101371.92
2018-08-10T21:31:41.292Z,101363.63
2018-08-10T21:34:09.660Z,101360.72
2018-08-10T21:36:38.421Z,101354.11
2018-08-10T21:39:09.389Z,101355.95
2018-08-10T21:41:37.752Z,101357.49
2018-08-10T21:44:06.388Z,101358.00
2018-08-10T21:46:34.993Z,101360.53
2018-08-10T21:49:03.374Z,101352.39
2018-08-10T21:51:31.668Z,101352.25
2018-08-10T21:54:00.084Z,101355.94
2018-08-10T21:56:28.413Z,101352.31
2018-08-10T21:58:56.748Z,101353.84
2018-08-10T22:01:25.086Z,101355.18
2018-08-10T22:03:53.530Z,101354.36
2018-08-10T22:06:21.890Z,101349.13
2018-08-10T22:08:50.253Z,101350.80
2018-08-10T22:11:18.689Z,101351.77
2018-08-10T22:13:52.305Z,101348.14
2018-08-10T22:16:26.064Z,101345.47
2018-08-10T22:18:59.777Z,101346.46
2018-08-10T22:21:28.271Z,101346.35
2018-08-10T22:23:56.666Z,101343.55
2018-08-10T22:26:25.080Z,101339.72
2018-08-10T22:28:53.438Z,101339.34
2018-08-10T22:31:21.764Z,101337.27
2018-08-10T22:33:50.114Z,101332.37
2018-08-10T22:36:18.453Z,101335.84
2018-08-10T22:38:46.848Z,101332.94
2018-08-10T22:41:16.095Z,101332.49
2018-08-10T22:43:44.494Z,101330.09
2018-08-10T22:46:12.910Z,101325.85
2018-08-10T22:48:41.242Z,101325.58
2018-08-10T22:51:09.663Z,101327.70
2018-08-10T22:53:38.123Z,101315.27
2018-08-10T22:56:06.627Z,101320.44
2018-08-10T22:58:35.015Z,101319.11
2018-08-10T23:01:03.492Z,101314.45
2018-08-10T23:03:32.237Z,101310.27
2018-08-10T23:06:00.608Z,101310.72
2018-08-10T23:08:29.112Z,101312.66
2018-08-10T23:10:57.471Z,101307.97
2018-08-10T23:13:25.862Z,101309.95
2018-08-10T23:15:54.188Z,101306.56
2018-08-10T23:18:22.660Z,101306.39
2018-08-10T23:20:51.020Z,101304.33
2018-08-10T23:23:19.335Z,101302.48
2018-08-10T23:25:47.682Z,101305.29
2018-08-10T23:28:16.036Z,101296.38
2018-08-10T23:30:44.399Z,101301.67
2018-08-10T23:33:12.691Z,101300.95
2018-08-10T23:35:41.090Z,101293.68
2018-08-10T23:38:09.516Z,101287.86
2018-08-10T23:40:37.834Z,101282.00
2018-08-10T23:43:06.573Z,101288.16
2018-08-10T23:45:34.961Z,101286.31
2018-08-10T23:48:03.385Z,101283.95
2018-08-10T23:50:31.772Z,101279.12
2018-08-10T23:53:00.121Z,101282.30
2018-08-10T23:55:28.485Z,101283.12
2018-08-10T23:57:56.885Z,101274.11
